sensor_id;sensor_type;location;lat;lon;timestamp;pressure;altitude;pressure_sealevel;temperature
74536;BMP180;63013;51.104;-115.370;2022-12-29T00:00:20;85424.00;;;23.42
74536;BMP180;63013;51.104;-115.370;2022-12-29T00:02:47;85421.60;;;23.48
74536;BMP180;63013;51.104;-115.370;2022-12-29T00:05:15;85424.60;;;23.48
74536;BMP180;63013;51.104;-115.370;2022-12-29T00:07:42;85427.40;;;23.50
74536;BMP180;63013;51.104;-115.370;2022-12-29T00:10:09;85432.00;;;23.50
74536;BMP180;63013;51.104;-115.370;2022-12-29T00:12:36;85432.60;;;23.50
74536;BMP180;63013;51.104;-115.370;2022-12-29T00:15:21;85433.40;;;23.50
74536;BMP180;63013;51.104;-115.370;2022-12-29T00:18:04;85434.80;;;23.50
74536;BMP180;63013;51.104;-115.370;2022-12-29T00:20:35;85436.60;;;23.50
74536;BMP180;63013;51.104;-115.370;2022-12-29T00:23:22;85437.60;;;23.50
74536;BMP180;63013;51.104;-115.370;2022-12-29T00:26:15;85438.00;;;23.50
74536;BMP180;63013;51.104;-115.370;2022-12-29T00:29:01;85444.00;;;23.50
74536;BMP180;63013;51.104;-115.370;2022-12-29T00:31:47;85444.40;;;23.50
74536;BMP180;63013;51.104;-115.370;2022-12-29T00:34:32;85448.00;;;23.50
74536;BMP180;63013;51.104;-115.370;2022-12-29T00:37:18;85451.00;;;23.50
74536;BMP180;63013;51.104;-115.370;2022-12-29T00:40:05;85457.40;;;23.50
74536;BMP180;63013;51.104;-115.370;2022-12-29T00:42:51;85459.80;;;23.50
74536;BMP180;63013;51.104;-115.370;2022-12-29T00:45:39;85461.00;;;23.50
74536;BMP180;63013;51.104;-115.370;2022-12-29T00:48:07;85460.20;;;23.50
74536;BMP180;63013;51.104;-115.370;2022-12-29T00:50:34;85463.40;;;23.50
74536;BMP180;63013;51.104;-115.370;2022-12-29T00:53:02;85466.80;;;23.50
74536;BMP180;63013;51.104;-115.370;2022-12-29T00:55:30;85471.00;;;23.50
74536;BMP180;63013;51.104;-115.370;2022-12-29T00:57:58;85471.40;;;23.50
74536;BMP180;63013;51.104;-115.370;2022-12-29T01:00:25;85473.60;;;23.54
74536;BMP180;63013;51.104;-115.370;2022-12-29T01:02:53;85478.40;;;23.60
74536;BMP180;63013;51.104;-115.370;2022-12-29T01:05:20;85475.40;;;23.60
74536;BMP180;63013;51.104;-115.370;2022-12-29T01:07:48;85474.80;;;23.60
74536;BMP180;63013;51.104;-115.370;2022-12-29T01:10:15;85476.00;;;23.60
74536;BMP180;63013;51.104;-115.370;2022-12-29T01:12:43;85474.60;;;23.60
74536;BMP180;63013;51.104;-115.370;2022-12-29T01:15:14;85481.80;;;23.60
74536;BMP180;63013;51.104;-115.370;2022-12-29T01:17:41;85478.40;;;23.60
74536;BMP180;63013;51.104;-115.370;2022-12-29T01:20:10;85481.60;;;23.60
74536;BMP180;63013;51.104;-115.370;2022-12-29T01:22:38;85482.00;;;23.60
74536;BMP180;63013;51.104;-115.370;2022-12-29T01:25:06;85486.60;;;23.60
74536;BMP180;63013;51.104;-115.370;2022-12-29T01:27:35;85488.60;;;23.60
74536;BMP180;63013;51.104;-115.370;2022-12-29T01:30:02;85489.20;;;23.60
74536;BMP180;63013;51.104;-115.370;2022-12-29T01:32:30;85495.00;;;23.60
74536;BMP180;63013;51.104;-115.370;2022-12-29T01:34:57;85497.40;;;23.60
74536;BMP180;63013;51.104;-115.370;2022-12-29T01:37:24;85500.20;;;23.60
74536;BMP180;63013;51.104;-115.370;2022-12-29T01:39:52;85501.40;;;23.52
74536;BMP180;63013;51.104;-115.370;2022-12-29T01:42:24;85502.80;;;23.50
74536;BMP180;63013;51.104;-115.370;2022-12-29T01:45:00;85504.80;;;23.50
74536;BMP180;63013;51.104;-115.370;2022-12-29T01:47:54;85511.60;;;23.50
74536;BMP180;63013;51.104;-115.370;2022-12-29T01:50:35;85503.00;;;23.50
74536;BMP180;63013;51.104;-115.370;2022-12-29T01:53:35;85506.60;;;23.50
74536;BMP180;63013;51.104;-115.370;2022-12-29T01:56:07;85510.60;;;23.50
74536;BMP180;63013;51.104;-115.370;2022-12-29T01:58:42;85510.80;;;23.50
74536;BMP180;63013;51.104;-115.370;2022-12-29T02:01:11;85509.00;;;23.44
74536;BMP180;63013;51.104;-115.370;2022-12-29T02:03:38;85516.00;;;23.40
74536;BMP180;63013;51.104;-115.370;2022-12-29T02:06:21;85512.80;;;23.40
74536;BMP180;63013;51.104;-115.370;2022-12-29T02:08:55;85518.80;;;23.40
74536;BMP180;63013;51.104;-115.370;2022-12-29T02:11:26;85517.20;;;23.40
74536;BMP180;63013;51.104;-115.370;2022-12-29T02:13:56;85523.00;;;23.40
74536;BMP180;63013;51.104;-115.370;2022-12-29T02:20:13;85521.60;;;23.38
74536;BMP180;63013;51.104;-115.370;2022-12-29T02:32:34;85532.20;;;23.30
74536;BMP180;63013;51.104;-115.370;2022-12-29T02:38:51;85534.60;;;23.20
74536;BMP180;63013;51.104;-115.370;2022-12-29T02:42:03;85542.40;;;23.20
74536;BMP180;63013;51.104;-115.370;2022-12-29T02:44:59;85537.20;;;23.20
74536;BMP180;63013;51.104;-115.370;2022-12-29T02:47:47;85542.20;;;23.20
74536;BMP180;63013;51.104;-115.370;2022-12-29T02:50:46;85546.60;;;23.10
74536;BMP180;63013;51.104;-115.370;2022-12-29T02:53:17;85546.60;;;23.10
74536;BMP180;63013;51.104;-115.370;2022-12-29T02:56:06;85544.60;;;23.10
74536;BMP180;63013;51.104;-115.370;2022-12-29T02:58:33;85540.40;;;23.10
74536;BMP180;63013;51.104;-115.370;2022-12-29T03:01:22;85546.40;;;23.10
74536;BMP180;63013;51.104;-115.370;2022-12-29T03:04:16;85548.20;;;23.04
74536;BMP180;63013;51.104;-115.370;2022-12-29T03:10:05;85540.20;;;23.00
74536;BMP180;63013;51.104;-115.370;2022-12-29T03:13:00;85544.20;;;23.00
74536;BMP180;63013;51.104;-115.370;2022-12-29T03:16:28;85550.60;;;23.00
74536;BMP180;63013;51.104;-115.370;2022-12-29T03:19:21;85548.40;;;22.96
74536;BMP180;63013;51.104;-115.370;2022-12-29T03:22:26;85550.20;;;22.90
74536;BMP180;63013;51.104;-115.370;2022-12-29T03:25:28;85556.00;;;22.90
74536;BMP180;63013;51.104;-115.370;2022-12-29T03:28:05;85560.40;;;22.90
74536;BMP180;63013;51.104;-115.370;2022-12-29T03:30:36;85561.20;;;22.90
74536;BMP180;63013;51.104;-115.370;2022-12-29T03:33:09;85563.40;;;22.90
74536;BMP180;63013;51.104;-115.370;2022-12-29T03:35:40;85563.00;;;22.90
74536;BMP180;63013;51.104;-115.370;2022-12-29T03:41:01;85566.60;;;22.80
74536;BMP180;63013;51.104;-115.370;2022-12-29T03:43:31;85570.20;;;22.80
74536;BMP180;63013;51.104;-115.370;2022-12-29T03:45:59;85569.40;;;22.80
74536;BMP180;63013;51.104;-115.370;2022-12-29T03:48:26;85573.80;;;22.80
74536;BMP180;63013;51.104;-115.370;2022-12-29T03:50:53;85578.00;;;22.80
74536;BMP180;63013;51.104;-115.370;2022-12-29T03:53:21;85581.40;;;22.78
74536;BMP180;63013;51.104;-115.370;2022-12-29T03:55:48;85581.40;;;22.70
74536;BMP180;63013;51.104;-115.370;2022-12-29T03:58:16;85580.80;;;22.70
74536;BMP180;63013;51.104;-115.370;2022-12-29T04:00:43;85577.00;;;22.70
74536;BMP180;63013;51.104;-115.370;2022-12-29T04:03:10;85580.20;;;22.70
74536;BMP180;63013;51.104;-115.370;2022-12-29T04:05:37;85576.40;;;22.68
74536;BMP180;63013;51.104;-115.370;2022-12-29T04:08:05;85580.00;;;22.62
74536;BMP180;63013;51.104;-115.370;2022-12-29T04:10:32;85579.00;;;22.62
74536;BMP180;63013;51.104;-115.370;2022-12-29T04:12:59;85577.00;;;22.60
74536;BMP180;63013;51.104;-115.370;2022-12-29T04:15:26;85577.60;;;22.60
74536;BMP180;63013;51.104;-115.370;2022-12-29T04:17:53;85581.00;;;22.60
74536;BMP180;63013;51.104;-115.370;2022-12-29T04:20:21;85579.40;;;22.60
74536;BMP180;63013;51.104;-115.370;2022-12-29T04:23:07;85577.80;;;22.54
74536;BMP180;63013;51.104;-115.370;2022-12-29T04:25:34;85579.00;;;22.50
74536;BMP180;63013;51.104;-115.370;2022-12-29T04:28:01;85584.20;;;22.50
74536;BMP180;63013;51.104;-115.370;2022-12-29T04:30:29;85579.40;;;22.50
74536;BMP180;63013;51.104;-115.370;2022-12-29T04:32:56;85583.20;;;22.50
74536;BMP180;63013;51.104;-115.370;2022-12-29T04:35:23;85582.60;;;22.50
74536;BMP180;63013;51.104;-115.370;2022-12-29T04:37:50;85583.00;;;22.50
74536;BMP180;63013;51.104;-115.370;2022-12-29T04:40:17;85579.20;;;22.40
74536;BMP180;63013;51.104;-115.370;2022-12-29T04:42:45;85585.00;;;22.40
74536;BMP180;63013;51.104;-115.370;2022-12-29T04:45:12;85581.40;;;22.40
74536;BMP180;63013;51.104;-115.370;2022-12-29T04:47:39;85585.60;;;22.40
74536;BMP180;63013;51.104;-115.370;2022-12-29T04:50:08;85585.20;;;22.40
74536;BMP180;63013;51.104;-115.370;2022-12-29T04:52:36;85586.40;;;22.32
74536;BMP180;63013;51.104;-115.370;2022-12-29T04:55:05;85592.00;;;22.30
74536;BMP180;63013;51.104;-115.370;2022-12-29T04:57:32;85601.00;;;22.30
74536;BMP180;63013;51.104;-115.370;2022-12-29T04:59:59;85594.40;;;22.30
74536;BMP180;63013;51.104;-115.370;2022-12-29T05:02:27;85597.60;;;22.30
74536;BMP180;63013;51.104;-115.370;2022-12-29T05:04:54;85599.60;;;22.30
74536;BMP180;63013;51.104;-115.370;2022-12-29T05:07:21;85596.80;;;22.20
74536;BMP180;63013;51.104;-115.370;2022-12-29T05:09:48;85599.60;;;22.20
74536;BMP180;63013;51.104;-115.370;2022-12-29T05:12:15;85600.40;;;22.20
74536;BMP180;63013;51.104;-115.370;2022-12-29T05:14:43;85600.00;;;22.20
74536;BMP180;63013;51.104;-115.370;2022-12-29T05:17:10;85602.20;;;22.20
74536;BMP180;63013;51.104;-115.370;2022-12-29T05:19:37;85600.60;;;22.20
74536;BMP180;63013;51.104;-115.370;2022-12-29T05:22:05;85596.40;;;22.10
74536;BMP180;63013;51.104;-115.370;2022-12-29T05:24:32;85599.60;;;22.10
74536;BMP180;63013;51.104;-115.370;2022-12-29T05:26:59;85593.40;;;22.10
74536;BMP180;63013;51.104;-115.370;2022-12-29T05:29:27;85599.20;;;22.10
74536;BMP180;63013;51.104;-115.370;2022-12-29T05:31:54;85600.40;;;22.10
74536;BMP180;63013;51.104;-115.370;2022-12-29T05:34:21;85602.40;;;22.10
74536;BMP180;63013;51.104;-115.370;2022-12-29T05:36:49;85610.40;;;22.02
74536;BMP180;63013;51.104;-115.370;2022-12-29T05:39:16;85612.40;;;22.00
74536;BMP180;63013;51.104;-115.370;2022-12-29T05:41:43;85617.80;;;22.00
74536;BMP180;63013;51.104;-115.370;2022-12-29T05:44:14;85614.80;;;22.00
74536;BMP180;63013;51.104;-115.370;2022-12-29T05:46:41;85612.40;;;22.00
74536;BMP180;63013;51.104;-115.370;2022-12-29T05:49:08;85617.20;;;22.00
74536;BMP180;63013;51.104;-115.370;2022-12-29T05:51:35;85615.40;;;21.96
74536;BMP180;63013;51.104;-115.370;2022-12-29T05:54:02;85617.20;;;21.90
74536;BMP180;63013;51.104;-115.370;2022-12-29T05:56:29;85617.00;;;21.90
74536;BMP180;63013;51.104;-115.370;2022-12-29T05:58:56;85614.40;;;21.90
74536;BMP180;63013;51.104;-115.370;2022-12-29T06:01:24;85617.40;;;21.90
74536;BMP180;63013;51.104;-115.370;2022-12-29T06:03:51;85619.80;;;21.90
74536;BMP180;63013;51.104;-115.370;2022-12-29T06:06:18;85617.60;;;21.88
74536;BMP180;63013;51.104;-115.370;2022-12-29T06:08:45;85617.00;;;21.82
74536;BMP180;63013;51.104;-115.370;2022-12-29T06:11:12;85620.40;;;21.80
74536;BMP180;63013;51.104;-115.370;2022-12-29T06:13:40;85622.20;;;21.80
74536;BMP180;63013;51.104;-115.370;2022-12-29T06:16:07;85624.00;;;21.80
74536;BMP180;63013;51.104;-115.370;2022-12-29T06:18:35;85627.80;;;21.80
74536;BMP180;63013;51.104;-115.370;2022-12-29T06:21:04;85628.20;;;21.80
74536;BMP180;63013;51.104;-115.370;2022-12-29T06:23:31;85623.80;;;21.80
74536;BMP180;63013;51.104;-115.370;2022-12-29T06:25:59;85629.40;;;21.80
74536;BMP180;63013;51.104;-115.370;2022-12-29T06:28:26;85627.40;;;21.74
74536;BMP180;63013;51.104;-115.370;2022-12-29T06:30:53;85631.40;;;21.70
74536;BMP180;63013;51.104;-115.370;2022-12-29T06:33:21;85631.40;;;21.70
74536;BMP180;63013;51.104;-115.370;2022-12-29T06:35:48;85630.20;;;21.70
74536;BMP180;63013;51.104;-115.370;2022-12-29T06:38:15;85629.40;;;21.70
74536;BMP180;63013;51.104;-115.370;2022-12-29T06:40:43;85626.20;;;21.70
74536;BMP180;63013;51.104;-115.370;2022-12-29T06:43:11;85627.60;;;21.60
74536;BMP180;63013;51.104;-115.370;2022-12-29T06:45:39;85632.60;;;21.60
74536;BMP180;63013;51.104;-115.370;2022-12-29T06:48:07;85628.20;;;21.60
74536;BMP180;63013;51.104;-115.370;2022-12-29T06:50:35;85630.40;;;21.60
74536;BMP180;63013;51.104;-115.370;2022-12-29T06:53:02;85632.80;;;21.60
74536;BMP180;63013;51.104;-115.370;2022-12-29T06:55:29;85625.20;;;21.60
74536;BMP180;63013;51.104;-115.370;2022-12-29T06:57:59;85625.60;;;21.54
74536;BMP180;63013;51.104;-115.370;2022-12-29T07:00:27;85628.60;;;21.50
74536;BMP180;63013;51.104;-115.370;2022-12-29T07:02:56;85622.20;;;21.50
74536;BMP180;63013;51.104;-115.370;2022-12-29T07:05:27;85624.60;;;21.50
74536;BMP180;63013;51.104;-115.370;2022-12-29T07:07:55;85627.00;;;21.50
74536;BMP180;63013;51.104;-115.370;2022-12-29T07:10:22;85630.80;;;21.50
74536;BMP180;63013;51.104;-115.370;2022-12-29T07:12:50;85626.00;;;21.50
74536;BMP180;63013;51.104;-115.370;2022-12-29T07:15:18;85628.00;;;21.42
74536;BMP180;63013;51.104;-115.370;2022-12-29T07:17:45;85632.80;;;21.40
74536;BMP180;63013;51.104;-115.370;2022-12-29T07:20:12;85630.20;;;21.40
74536;BMP180;63013;51.104;-115.370;2022-12-29T07:22:39;85629.40;;;21.40
74536;BMP180;63013;51.104;-115.370;2022-12-29T07:25:06;85624.40;;;21.40
74536;BMP180;63013;51.104;-115.370;2022-12-29T07:27:34;85627.00;;;21.40
74536;BMP180;63013;51.104;-115.370;2022-12-29T07:30:01;85631.80;;;21.32
74536;BMP180;63013;51.104;-115.370;2022-12-29T07:32:32;85628.80;;;21.30
74536;BMP180;63013;51.104;-115.370;2022-12-29T07:35:00;85630.80;;;21.30
74536;BMP180;63013;51.104;-115.370;2022-12-29T07:37:27;85628.40;;;21.30
74536;BMP180;63013;51.104;-115.370;2022-12-29T07:39:54;85624.60;;;21.30
74536;BMP180;63013;51.104;-115.370;2022-12-29T07:42:22;85627.80;;;21.30
74536;BMP180;63013;51.104;-115.370;2022-12-29T07:44:49;85632.40;;;21.24
74536;BMP180;63013;51.104;-115.370;2022-12-29T07:47:16;85632.80;;;21.20
74536;BMP180;63013;51.104;-115.370;2022-12-29T07:49:43;85635.40;;;21.20
74536;BMP180;63013;51.104;-115.370;2022-12-29T07:52:10;85637.00;;;21.20
74536;BMP180;63013;51.104;-115.370;2022-12-29T07:54:37;85639.80;;;21.20
74536;BMP180;63013;51.104;-115.370;2022-12-29T07:57:05;85641.00;;;21.20
74536;BMP180;63013;51.104;-115.370;2022-12-29T07:59:33;85636.40;;;21.20
74536;BMP180;63013;51.104;-115.370;2022-12-29T08:02:00;85639.20;;;21.10
74536;BMP180;63013;51.104;-115.370;2022-12-29T08:04:27;85644.20;;;21.10
74536;BMP180;63013;51.104;-115.370;2022-12-29T08:06:54;85643.80;;;21.10
74536;BMP180;63013;51.104;-115.370;2022-12-29T08:09:22;85644.20;;;21.10
74536;BMP180;63013;51.104;-115.370;2022-12-29T08:11:49;85644.80;;;21.10
74536;BMP180;63013;51.104;-115.370;2022-12-29T08:14:17;85643.20;;;21.10
74536;BMP180;63013;51.104;-115.370;2022-12-29T08:16:44;85643.80;;;21.08
74536;BMP180;63013;51.104;-115.370;2022-12-29T08:19:12;85648.40;;;21.04
74536;BMP180;63013;51.104;-115.370;2022-12-29T08:21:40;85644.60;;;21.00
74536;BMP180;63013;51.104;-115.370;2022-12-29T08:24:09;85649.60;;;21.00
74536;BMP180;63013;51.104;-115.370;2022-12-29T08:26:37;85647.40;;;21.00
74536;BMP180;63013;51.104;-115.370;2022-12-29T08:29:04;85644.80;;;21.00
74536;BMP180;63013;51.104;-115.370;2022-12-29T08:31:31;85642.40;;;20.96
74536;BMP180;63013;51.104;-115.370;2022-12-29T08:33:59;85638.80;;;20.90
74536;BMP180;63013;51.104;-115.370;2022-12-29T08:36:27;85634.40;;;20.90
74536;BMP180;63013;51.104;-115.370;2022-12-29T08:38:55;85640.60;;;20.90
74536;BMP180;63013;51.104;-115.370;2022-12-29T08:41:22;85638.00;;;20.90
74536;BMP180;63013;51.104;-115.370;2022-12-29T08:43:50;85638.80;;;20.90
74536;BMP180;63013;51.104;-115.370;2022-12-29T08:46:17;85635.80;;;20.90
74536;BMP180;63013;51.104;-115.370;2022-12-29T08:48:46;85638.00;;;20.88
74536;BMP180;63013;51.104;-115.370;2022-12-29T08:51:13;85635.60;;;20.80
74536;BMP180;63013;51.104;-115.370;2022-12-29T08:53:40;85635.80;;;20.80
74536;BMP180;63013;51.104;-115.370;2022-12-29T08:56:09;85639.20;;;20.80
74536;BMP180;63013;51.104;-115.370;2022-12-29T08:58:38;85636.00;;;20.80
74536;BMP180;63013;51.104;-115.370;2022-12-29T09:01:05;85637.80;;;20.80
74536;BMP180;63013;51.104;-115.370;2022-12-29T09:03:32;85635.20;;;20.80
74536;BMP180;63013;51.104;-115.370;2022-12-29T09:05:59;85637.60;;;20.70
74536;BMP180;63013;51.104;-115.370;2022-12-29T09:15:37;85640.00;;;20.70
74536;BMP180;63013;51.104;-115.370;2022-12-29T09:18:06;85642.00;;;20.62
74536;BMP180;63013;51.104;-115.370;2022-12-29T09:20:34;85643.20;;;20.60
74536;BMP180;63013;51.104;-115.370;2022-12-29T09:23:01;85638.20;;;20.60
74536;BMP180;63013;51.104;-115.370;2022-12-29T09:25:29;85636.80;;;20.60
74536;BMP180;63013;51.104;-115.370;2022-12-29T09:27:57;85641.40;;;20.60
74536;BMP180;63013;51.104;-115.370;2022-12-29T09:30:24;85644.20;;;20.60
74536;BMP180;63013;51.104;-115.370;2022-12-29T09:32:51;85647.60;;;20.56
74536;BMP180;63013;51.104;-115.370;2022-12-29T09:35:18;85649.60;;;20.50
74536;BMP180;63013;51.104;-115.370;2022-12-29T09:37:46;85648.60;;;20.50
74536;BMP180;63013;51.104;-115.370;2022-12-29T09:40:34;85651.00;;;20.50
74536;BMP180;63013;51.104;-115.370;2022-12-29T09:46:25;85662.00;;;20.50
74536;BMP180;63013;51.104;-115.370;2022-12-29T09:49:27;85664.60;;;20.50
74536;BMP180;63013;51.104;-115.370;2022-12-29T09:52:04;85664.00;;;20.40
74536;BMP180;63013;51.104;-115.370;2022-12-29T09:55:10;85663.00;;;20.40
74536;BMP180;63013;51.104;-115.370;2022-12-29T09:58:00;85668.60;;;20.40
74536;BMP180;63013;51.104;-115.370;2022-12-29T10:03:20;85671.20;;;20.40
74536;BMP180;63013;51.104;-115.370;2022-12-29T10:20:57;85684.60;;;20.30
74536;BMP180;63013;51.104;-115.370;2022-12-29T10:23:50;85682.80;;;20.24
74536;BMP180;63013;51.104;-115.370;2022-12-29T10:26:38;85680.00;;;20.20
74536;BMP180;63013;51.104;-115.370;2022-12-29T10:29:33;85682.60;;;20.20
74536;BMP180;63013;51.104;-115.370;2022-12-29T10:34:51;85683.40;;;20.20
74536;BMP180;63013;51.104;-115.370;2022-12-29T10:43:51;85687.00;;;20.10
74536;BMP180;63013;51.104;-115.370;2022-12-29T10:46:25;85681.80;;;20.10
74536;BMP180;63013;51.104;-115.370;2022-12-29T10:48:54;85684.80;;;20.10
74536;BMP180;63013;51.104;-115.370;2022-12-29T10:51:32;85681.40;;;20.10
74536;BMP180;63013;51.104;-115.370;2022-12-29T10:54:11;85684.20;;;20.10
74536;BMP180;63013;51.104;-115.370;2022-12-29T10:56:51;85686.40;;;20.10
74536;BMP180;63013;51.104;-115.370;2022-12-29T10:59:30;85682.40;;;20.10
74536;BMP180;63013;51.104;-115.370;2022-12-29T11:05:10;85680.60;;;20.02
74536;BMP180;63013;51.104;-115.370;2022-12-29T11:07:43;85678.80;;;20.00
74536;BMP180;63013;51.104;-115.370;2022-12-29T11:13:18;85683.00;;;20.00
74536;BMP180;63013;51.104;-115.370;2022-12-29T11:15:48;85685.20;;;20.00
74536;BMP180;63013;51.104;-115.370;2022-12-29T11:18:24;85679.40;;;19.98
74536;BMP180;63013;51.104;-115.370;2022-12-29T11:20:58;85677.00;;;19.90
74536;BMP180;63013;51.104;-115.370;2022-12-29T11:23:40;85676.60;;;19.90
74536;BMP180;63013;51.104;-115.370;2022-12-29T11:26:27;85677.60;;;19.90
74536;BMP180;63013;51.104;-115.370;2022-12-29T11:31:50;85683.80;;;19.90
74536;BMP180;63013;51.104;-115.370;2022-12-29T11:34:30;85686.00;;;19.90
74536;BMP180;63013;51.104;-115.370;2022-12-29T11:40:21;85689.60;;;19.80
74536;BMP180;63013;51.104;-115.370;2022-12-29T11:42:58;85697.40;;;19.80
74536;BMP180;63013;51.104;-115.370;2022-12-29T11:45:45;85693.80;;;19.80
74536;BMP180;63013;51.104;-115.370;2022-12-29T11:48:22;85697.80;;;19.80
74536;BMP180;63013;51.104;-115.370;2022-12-29T11:50:57;85703.80;;;19.80
74536;BMP180;63013;51.104;-115.370;2022-12-29T11:53:46;85709.00;;;19.70
74536;BMP180;63013;51.104;-115.370;2022-12-29T11:56:32;85711.60;;;19.70
74536;BMP180;63013;51.104;-115.370;2022-12-29T12:05:25;85711.40;;;19.70
74536;BMP180;63013;51.104;-115.370;2022-12-29T12:11:16;85700.80;;;19.60
74536;BMP180;63013;51.104;-115.370;2022-12-29T12:16:46;85697.00;;;19.60
74536;BMP180;63013;51.104;-115.370;2022-12-29T12:22:38;85709.00;;;19.60
74536;BMP180;63013;51.104;-115.370;2022-12-29T12:25:27;85703.40;;;19.60
74536;BMP180;63013;51.104;-115.370;2022-12-29T12:28:00;85704.00;;;19.50
74536;BMP180;63013;51.104;-115.370;2022-12-29T12:30:40;85695.20;;;19.50
74536;BMP180;63013;51.104;-115.370;2022-12-29T12:33:36;85695.60;;;19.50
74536;BMP180;63013;51.104;-115.370;2022-12-29T13:16:08;85695.80;;;19.20
74536;BMP180;63013;51.104;-115.370;2022-12-29T13:21:40;85702.20;;;19.20
74536;BMP180;63013;51.104;-115.370;2022-12-29T13:27:32;85706.60;;;19.20
74536;BMP180;63013;51.104;-115.370;2022-12-29T13:30:18;85707.20;;;19.20
74536;BMP180;63013;51.104;-115.370;2022-12-29T13:33:07;85714.60;;;19.12
74536;BMP180;63013;51.104;-115.370;2022-12-29T13:36:00;85721.60;;;19.10
74536;BMP180;63013;51.104;-115.370;2022-12-29T13:38:39;85728.80;;;19.10
74536;BMP180;63013;51.104;-115.370;2022-12-29T13:41:20;85724.00;;;19.10
74536;BMP180;63013;51.104;-115.370;2022-12-29T13:43:49;85727.20;;;19.10
74536;BMP180;63013;51.104;-115.370;2022-12-29T13:46:29;85733.00;;;19.10
74536;BMP180;63013;51.104;-115.370;2022-12-29T13:49:21;85732.40;;;19.10
74536;BMP180;63013;51.104;-115.370;2022-12-29T13:51:58;85736.00;;;19.10
74536;BMP180;63013;51.104;-115.370;2022-12-29T14:00:21;85742.60;;;19.00
74536;BMP180;63013;51.104;-115.370;2022-12-29T14:06:23;85745.40;;;19.00
74536;BMP180;63013;51.104;-115.370;2022-12-29T14:09:04;85749.80;;;19.00
74536;BMP180;63013;51.104;-115.370;2022-12-29T14:11:41;85749.80;;;19.00
74536;BMP180;63013;51.104;-115.370;2022-12-29T14:14:30;85751.60;;;18.96
74536;BMP180;63013;51.104;-115.370;2022-12-29T14:17:12;85749.20;;;18.90
74536;BMP180;63013;51.104;-115.370;2022-12-29T14:19:46;85747.40;;;18.96
74536;BMP180;63013;51.104;-115.370;2022-12-29T14:22:26;85745.40;;;19.00
74536;BMP180;63013;51.104;-115.370;2022-12-29T14:24:54;85745.60;;;19.00
74536;BMP180;63013;51.104;-115.370;2022-12-29T14:29:50;85745.40;;;19.02
74536;BMP180;63013;51.104;-115.370;2022-12-29T14:35:00;85737.80;;;19.10
74536;BMP180;63013;51.104;-115.370;2022-12-29T14:37:47;85730.00;;;19.10
74536;BMP180;63013;51.104;-115.370;2022-12-29T14:40:24;85732.40;;;19.20
74536;BMP180;63013;51.104;-115.370;2022-12-29T14:42:55;85728.20;;;19.20
74536;BMP180;63013;51.104;-115.370;2022-12-29T14:45:30;85727.20;;;19.26
74536;BMP180;63013;51.104;-115.370;2022-12-29T14:48:40;85730.80;;;19.30
74536;BMP180;63013;51.104;-115.370;2022-12-29T14:51:32;85738.00;;;19.38
74536;BMP180;63013;51.104;-115.370;2022-12-29T14:54:34;85737.80;;;19.40
74536;BMP180;63013;51.104;-115.370;2022-12-29T14:57:34;85746.60;;;19.50
74536;BMP180;63013;51.104;-115.370;2022-12-29T15:00:24;85746.40;;;19.50
74536;BMP180;63013;51.104;-115.370;2022-12-29T15:03:50;85747.00;;;19.60
74536;BMP180;63013;51.104;-115.370;2022-12-29T15:06:18;85749.80;;;19.70
74536;BMP180;63013;51.104;-115.370;2022-12-29T15:08:56;85756.00;;;19.70
74536;BMP180;63013;51.104;-115.370;2022-12-29T15:14:37;85761.00;;;19.80
74536;BMP180;63013;51.104;-115.370;2022-12-29T15:17:34;85761.20;;;19.90
74536;BMP180;63013;51.104;-115.370;2022-12-29T15:20:28;85756.60;;;20.00
74536;BMP180;63013;51.104;-115.370;2022-12-29T15:23:02;85757.80;;;20.00
74536;BMP180;63013;51.104;-115.370;2022-12-29T15:25:31;85758.40;;;20.10
74536;BMP180;63013;51.104;-115.370;2022-12-29T15:28:04;85760.20;;;20.12
74536;BMP180;63013;51.104;-115.370;2022-12-29T15:30:33;85763.40;;;20.20
74536;BMP180;63013;51.104;-115.370;2022-12-29T15:33:00;85761.40;;;20.20
74536;BMP180;63013;51.104;-115.370;2022-12-29T15:35:36;85765.00;;;20.30
74536;BMP180;63013;51.104;-115.370;2022-12-29T15:38:27;85758.40;;;20.30
74536;BMP180;63013;51.104;-115.370;2022-12-29T15:41:04;85757.00;;;20.40
74536;BMP180;63013;51.104;-115.370;2022-12-29T15:46:12;85761.20;;;20.50
74536;BMP180;63013;51.104;-115.370;2022-12-29T15:48:41;85764.60;;;20.60
74536;BMP180;63013;51.104;-115.370;2022-12-29T15:51:35;85768.40;;;20.60
74536;BMP180;63013;51.104;-115.370;2022-12-29T15:54:03;85768.40;;;20.70
74536;BMP180;63013;51.104;-115.370;2022-12-29T15:56:32;85763.20;;;20.80
74536;BMP180;63013;51.104;-115.370;2022-12-29T15:59:00;85763.40;;;20.88
74536;BMP180;63013;51.104;-115.370;2022-12-29T16:01:35;85768.80;;;20.90
74536;BMP180;63013;51.104;-115.370;2022-12-29T16:04:09;85772.40;;;21.00
74536;BMP180;63013;51.104;-115.370;2022-12-29T16:06:54;85769.20;;;21.10
74536;BMP180;63013;51.104;-115.370;2022-12-29T16:12:14;85769.40;;;21.30
74536;BMP180;63013;51.104;-115.370;2022-12-29T16:15:11;85771.40;;;21.30
74536;BMP180;63013;51.104;-115.370;2022-12-29T16:17:52;85768.80;;;21.30
74536;BMP180;63013;51.104;-115.370;2022-12-29T16:20:37;85766.40;;;21.30
74536;BMP180;63013;51.104;-115.370;2022-12-29T16:23:24;85768.20;;;21.30
74536;BMP180;63013;51.104;-115.370;2022-12-29T16:25:53;85770.80;;;21.30
74536;BMP180;63013;51.104;-115.370;2022-12-29T16:28:27;85770.80;;;21.30
74536;BMP180;63013;51.104;-115.370;2022-12-29T16:34:46;85765.60;;;21.36
74536;BMP180;63013;51.104;-115.370;2022-12-29T16:37:35;85770.80;;;21.40
74536;BMP180;63013;51.104;-115.370;2022-12-29T16:40:28;85776.40;;;21.40
74536;BMP180;63013;51.104;-115.370;2022-12-29T16:43:02;85777.80;;;21.50
74536;BMP180;63013;51.104;-115.370;2022-12-29T16:48:33;85777.80;;;21.60
74536;BMP180;63013;51.104;-115.370;2022-12-29T16:51:16;85791.60;;;21.60
74536;BMP180;63013;51.104;-115.370;2022-12-29T16:53:52;85787.60;;;21.60